createdAt,value
2024-01-17T00:00:43.038Z,31.00
2024-01-17T00:01:43.121Z,33.00
2024-01-17T00:02:42.999Z,25.70
2024-01-17T00:03:42.978Z,30.20
2024-01-17T00:04:42.951Z,26.20
2024-01-17T00:05:43.049Z,30.20
2024-01-17T00:06:42.993Z,33.00
2024-01-17T00:07:43.006Z,27.70
2024-01-17T00:08:42.942Z,29.40
2024-01-17T00:09:42.896Z,31.20
2024-01-17T00:10:42.897Z,32.50
2024-01-17T00:11:42.910Z,29.60
2024-01-17T00:12:42.851Z,26.20
2024-01-17T00:13:42.826Z,27.40
2024-01-17T00:14:42.868Z,28.70
2024-01-17T00:15:42.817Z,25.90
2024-01-17T00:16:42.807Z,21.40
2024-01-17T00:17:42.877Z,31.00
2024-01-17T00:18:42.861Z,30.70
2024-01-17T00:19:42.760Z,30.70
2024-01-17T00:20:42.750Z,27.40
2024-01-17T00:21:42.749Z,28.70
2024-01-17T00:22:42.751Z,27.90
2024-01-17T00:23:42.769Z,31.70
2024-01-17T00:24:42.748Z,29.40
2024-01-17T00:25:42.701Z,25.20
2024-01-17T00:26:43.059Z,31.10
2024-01-17T00:27:42.657Z,27.00
2024-01-17T00:28:42.688Z,27.80
2024-01-17T00:29:42.669Z,28.70
2024-01-17T00:30:42.724Z,31.10
2024-01-17T00:31:42.609Z,27.30
2024-01-17T00:32:42.634Z,33.10
2024-01-17T00:33:42.707Z,27.90
2024-01-17T00:34:42.567Z,28.20
2024-01-17T00:35:42.598Z,31.40
2024-01-17T00:36:42.526Z,28.40
2024-01-17T00:37:42.514Z,29.40
2024-01-17T00:38:42.541Z,27.70
2024-01-17T00:39:42.465Z,29.00
2024-01-17T00:40:42.480Z,30.20
2024-01-17T00:41:42.473Z,31.00
2024-01-17T00:42:42.441Z,29.10
2024-01-17T00:43:42.474Z,28.40
2024-01-17T00:44:42.459Z,26.00
2024-01-17T00:45:42.430Z,25.40
2024-01-17T00:46:42.392Z,27.40
2024-01-17T00:47:42.446Z,27.10
2024-01-17T00:48:42.480Z,28.20
2024-01-17T00:49:42.419Z,26.30
2024-01-17T00:50:42.372Z,25.50
2024-01-17T00:51:42.311Z,24.40
2024-01-17T00:52:42.345Z,25.80
2024-01-17T00:53:42.388Z,26.80
2024-01-17T00:54:42.319Z,25.70
2024-01-17T00:55:42.286Z,32.40
2024-01-17T00:56:42.259Z,30.00
2024-01-17T00:57:42.234Z,27.70
2024-01-17T00:58:42.320Z,32.30
2024-01-17T00:59:42.283Z,26.40
2024-01-17T01:00:43.444Z,25.70
2024-01-17T01:01:42.191Z,28.80
2024-01-17T01:02:42.250Z,27.00
2024-01-17T01:03:42.270Z,28.70
2024-01-17T01:04:42.173Z,24.30
2024-01-17T01:05:42.178Z,27.90
2024-01-17T01:06:42.137Z,28.20
2024-01-17T01:07:42.173Z,26.60
2024-01-17T01:08:42.135Z,32.30
2024-01-17T01:09:42.185Z,27.60
2024-01-17T01:10:42.055Z,25.40
2024-01-17T01:11:42.238Z,30.20
2024-01-17T01:12:42.085Z,28.20
2024-01-17T01:13:42.081Z,31.80
2024-01-17T01:14:42.044Z,30.30
2024-01-17T01:15:42.023Z,32.20
2024-01-17T01:16:42.014Z,26.90
2024-01-17T01:17:42.031Z,29.80
2024-01-17T01:18:42.218Z,26.00
2024-01-17T01:19:42.044Z,30.30
2024-01-17T01:20:42.040Z,27.90
2024-01-17T01:21:41.917Z,29.00
2024-01-17T01:22:41.933Z,28.50
2024-01-17T01:23:41.903Z,31.40
2024-01-17T01:24:41.900Z,29.50
2024-01-17T01:25:41.882Z,29.70
2024-01-17T01:26:44.921Z,30.80
2024-01-17T01:27:41.849Z,28.20
2024-01-17T01:28:41.910Z,29.30
2024-01-17T01:29:41.833Z,28.90
2024-01-17T01:30:41.854Z,29.20
2024-01-17T01:31:41.840Z,28.80
2024-01-17T01:32:41.801Z,31.20
2024-01-17T01:33:41.938Z,30.80
2024-01-17T01:34:41.800Z,30.00
2024-01-17T01:35:41.726Z,30.00
2024-01-17T01:36:41.748Z,30.90
2024-01-17T01:37:41.680Z,29.00
2024-01-17T01:38:41.725Z,29.70
2024-01-17T01:39:41.653Z,31.70
2024-01-17T01:40:41.692Z,30.10
2024-01-17T01:41:41.706Z,28.40
2024-01-17T01:42:41.690Z,27.10
2024-01-17T01:43:41.677Z,30.80
2024-01-17T01:44:41.658Z,30.40
2024-01-17T01:45:41.603Z,28.40
2024-01-17T01:46:41.617Z,24.60
2024-01-17T01:47:41.629Z,29.10
2024-01-17T01:48:41.645Z,31.20
2024-01-17T01:49:41.543Z,30.70
2024-01-17T01:50:41.580Z,31.10
2024-01-17T01:51:41.490Z,27.90
2024-01-17T01:52:41.559Z,29.80
2024-01-17T01:53:41.526Z,29.20
2024-01-17T01:54:41.459Z,30.10
2024-01-17T01:55:41.468Z,24.90
2024-01-17T01:56:41.552Z,29.00
2024-01-17T01:57:41.495Z,29.20
2024-01-17T01:58:41.449Z,28.30
2024-01-17T01:59:41.426Z,26.10
2024-01-17T02:00:41.406Z,27.30
2024-01-17T02:01:41.384Z,29.20
2024-01-17T02:02:41.515Z,26.40
2024-01-17T02:03:41.358Z,28.60
2024-01-17T02:04:41.365Z,31.10
2024-01-17T02:05:41.405Z,29.10
2024-01-17T02:06:41.345Z,24.90
2024-01-17T02:07:41.377Z,24.30
2024-01-17T02:08:41.458Z,24.30
2024-01-17T02:09:41.289Z,27.00
2024-01-17T02:10:41.277Z,28.40
2024-01-17T02:11:41.311Z,27.60
2024-01-17T02:12:41.262Z,27.80
2024-01-17T02:13:41.231Z,26.70
2024-01-17T02:14:41.332Z,25.10
2024-01-17T02:15:41.270Z,25.30
2024-01-17T02:16:41.277Z,25.10
2024-01-17T02:17:41.354Z,20.40
2024-01-17T02:18:41.332Z,27.60
2024-01-17T02:19:41.235Z,27.80
2024-01-17T02:20:41.408Z,23.50
2024-01-17T02:21:41.182Z,20.30
2024-01-17T02:22:41.180Z,22.40
2024-01-17T02:23:41.173Z,26.50
2024-01-17T02:24:41.111Z,24.40
2024-01-17T02:25:41.122Z,25.50
2024-01-17T02:26:41.179Z,23.30
2024-01-17T02:27:41.119Z,18.80
2024-01-17T02:28:41.101Z,21.60
2024-01-17T02:29:41.156Z,25.90
2024-01-17T02:30:41.112Z,27.80
2024-01-17T02:31:41.057Z,17.00
2024-01-17T02:32:41.049Z,19.80
2024-01-17T02:33:41.078Z,24.40
2024-01-17T02:34:40.959Z,20.80
2024-01-17T02:35:40.980Z,19.80
2024-01-17T02:36:40.925Z,23.00
2024-01-17T02:37:40.883Z,24.90
2024-01-17T02:38:40.896Z,25.40
2024-01-17T02:39:40.879Z,23.90
2024-01-17T02:40:40.859Z,26.30
2024-01-17T02:41:40.928Z,18.20
2024-01-17T02:42:40.816Z,24.60
2024-01-17T02:43:40.854Z,22.90
2024-01-17T02:44:40.885Z,21.80
2024-01-17T02:45:40.796Z,25.30
2024-01-17T02:46:40.795Z,17.70
2024-01-17T02:47:40.841Z,24.40
2024-01-17T02:48:40.846Z,24.70
2024-01-17T02:49:40.793Z,21.30
2024-01-17T02:50:40.757Z,22.30
2024-01-17T02:51:40.723Z,22.60
2024-01-17T02:52:40.720Z,24.00
2024-01-17T02:53:40.680Z,22.60
2024-01-17T02:54:40.640Z,23.90
2024-01-17T02:55:40.656Z,26.00
2024-01-17T02:56:40.608Z,21.30
2024-01-17T02:57:40.613Z,20.70
2024-01-17T02:58:40.648Z,21.30
2024-01-17T02:59:40.639Z,22.80
2024-01-17T03:00:40.791Z,22.80
2024-01-17T03:01:40.548Z,24.70
2024-01-17T03:02:40.636Z,24.30
2024-01-17T03:03:40.532Z,25.90
2024-01-17T03:04:40.610Z,23.30
2024-01-17T03:05:40.619Z,24.50
2024-01-17T03:06:40.596Z,23.30
2024-01-17T03:07:40.687Z,25.20
2024-01-17T03:08:40.541Z,23.60
2024-01-17T03:09:40.520Z,25.50
2024-01-17T03:10:40.430Z,23.50
2024-01-17T03:11:40.516Z,23.90
2024-01-17T03:12:40.472Z,21.20
2024-01-17T03:13:40.384Z,24.00
2024-01-17T03:14:40.464Z,26.90
2024-01-17T03:15:40.376Z,24.10
2024-01-17T03:16:40.379Z,21.30
2024-01-17T03:17:40.484Z,19.90
2024-01-17T03:18:40.519Z,25.80
2024-01-17T03:19:40.377Z,20.70
2024-01-17T03:20:40.322Z,21.20
2024-01-17T03:21:40.270Z,23.50
2024-01-17T03:22:40.507Z,23.00
2024-01-17T03:23:40.253Z,21.60
2024-01-17T03:24:40.278Z,22.90
2024-01-17T03:25:40.235Z,20.70
2024-01-17T03:26:40.234Z,22.40
2024-01-17T03:27:40.222Z,23.00
2024-01-17T03:28:40.201Z,24.80
2024-01-17T03:29:40.179Z,22.80
2024-01-17T03:30:40.202Z,22.70
2024-01-17T03:31:40.145Z,26.80
2024-01-17T03:32:40.293Z,22.20
2024-01-17T03:33:40.256Z,21.50
2024-01-17T03:34:40.184Z,19.50
2024-01-17T03:35:40.199Z,22.40
2024-01-17T03:36:40.090Z,22.00
2024-01-17T03:37:40.139Z,24.70
2024-01-17T03:38:40.075Z,21.60
2024-01-17T03:39:40.042Z,20.30
2024-01-17T03:40:40.044Z,24.20
2024-01-17T03:41:40.118Z,19.50
2024-01-17T03:42:40.008Z,21.70
2024-01-17T03:43:40.008Z,19.80
2024-01-17T03:44:40.011Z,25.40
2024-01-17T03:45:39.968Z,19.50
2024-01-17T03:46:39.952Z,23.10
2024-01-17T03:47:40.034Z,21.40
2024-01-17T03:48:40.048Z,21.80
2024-01-17T03:49:40.091Z,25.10
2024-01-17T03:50:39.910Z,23.00
2024-01-17T03:51:40.043Z,20.70
2024-01-17T03:52:39.870Z,25.70
2024-01-17T03:53:39.928Z,23.30
2024-01-17T03:54:39.902Z,22.30
2024-01-17T03:55:39.861Z,24.30
2024-01-17T03:56:39.842Z,19.50
2024-01-17T03:57:39.846Z,23.50
2024-01-17T03:58:39.798Z,20.30
2024-01-17T03:59:39.809Z,22.40
2024-01-17T04:00:39.846Z,24.20
2024-01-17T04:01:39.971Z,25.00
2024-01-17T04:02:39.822Z,22.40
2024-01-17T04:03:39.833Z,22.90
2024-01-17T04:04:39.824Z,23.90
2024-01-17T04:05:40.704Z,21.30
2024-01-17T04:06:39.782Z,19.90
2024-01-17T04:07:39.717Z,22.30
2024-01-17T04:08:39.769Z,21.80
2024-01-17T04:09:39.703Z,22.30
2024-01-17T04:10:40.622Z,19.30
2024-01-17T04:11:39.660Z,24.10
2024-01-17T04:12:39.689Z,21.00
2024-01-17T04:13:39.588Z,27.10
2024-01-17T04:14:39.615Z,19.10
2024-01-17T04:15:39.575Z,20.10
2024-01-17T04:16:39.584Z,22.10
2024-01-17T04:17:39.768Z,19.80
2024-01-17T04:18:39.679Z,18.50
2024-01-17T04:19:39.608Z,19.10
2024-01-17T04:20:39.587Z,21.90
2024-01-17T04:21:39.490Z,18.30
2024-01-17T04:22:39.480Z,21.20
2024-01-17T04:23:39.531Z,18.60
2024-01-17T04:24:39.477Z,21.60
2024-01-17T04:25:39.469Z,19.30
2024-01-17T04:26:39.454Z,17.70
2024-01-17T04:27:39.421Z,20.50
2024-01-17T04:28:39.412Z,20.60
2024-01-17T04:29:39.417Z,21.30
2024-01-17T04:30:39.405Z,20.30
2024-01-17T04:31:39.343Z,22.60
2024-01-17T04:32:39.420Z,22.30
2024-01-17T04:33:39.477Z,19.90
2024-01-17T04:34:39.356Z,19.00
2024-01-17T04:35:39.306Z,21.20
2024-01-17T04:36:39.277Z,24.40
2024-01-17T04:37:39.307Z,20.80
2024-01-17T04:38:39.274Z,19.10
2024-01-17T04:39:39.228Z,21.50
2024-01-17T04:40:39.314Z,22.20
2024-01-17T04:41:39.217Z,18.50
2024-01-17T04:42:39.194Z,16.30
2024-01-17T04:43:39.170Z,18.70
2024-01-17T04:44:39.175Z,18.30
2024-01-17T04:45:39.178Z,19.90
2024-01-17T04:46:39.142Z,21.50
2024-01-17T04:47:39.259Z,19.90
2024-01-17T04:48:39.285Z,24.00
2024-01-17T04:49:39.233Z,22.40
2024-01-17T04:50:39.164Z,23.30
2024-01-17T04:51:39.069Z,18.60
2024-01-17T04:52:39.076Z,18.30
2024-01-17T04:53:39.055Z,22.60
2024-01-17T04:54:39.041Z,19.10
2024-01-17T04:55:39.015Z,19.30
2024-01-17T04:56:39.020Z,20.20
2024-01-17T04:57:39.001Z,19.30
2024-01-17T04:58:39.015Z,19.70
2024-01-17T04:59:39.062Z,18.70
2024-01-17T05:00:39.056Z,17.30
2024-01-17T05:01:39.015Z,19.60
2024-01-17T05:02:38.952Z,20.20
2024-01-17T05:03:38.951Z,19.20
2024-01-17T05:04:38.946Z,20.30
2024-01-17T05:05:38.916Z,23.00
2024-01-17T05:06:39.010Z,17.20
2024-01-17T05:07:38.875Z,18.50
2024-01-17T05:08:39.454Z,21.10
2024-01-17T05:09:38.829Z,21.40
2024-01-17T05:10:38.888Z,19.40
2024-01-17T05:11:38.882Z,20.60
2024-01-17T05:12:38.817Z,18.90
2024-01-17T05:13:38.789Z,20.00
2024-01-17T05:14:38.823Z,21.30
2024-01-17T05:15:38.774Z,16.80
2024-01-17T05:16:38.761Z,20.00
2024-01-17T05:17:38.938Z,21.40
2024-01-17T05:18:38.872Z,21.30
2024-01-17T05:19:38.848Z,19.20
2024-01-17T05:20:38.722Z,16.40
2024-01-17T05:21:38.722Z,21.30
2024-01-17T05:22:38.688Z,17.50
2024-01-17T05:23:38.644Z,20.60
2024-01-17T05:24:38.643Z,20.50
2024-01-17T05:25:38.666Z,19.10
2024-01-17T05:26:38.623Z,18.20
2024-01-17T05:27:38.583Z,18.80
2024-01-17T05:28:38.564Z,17.80
2024-01-17T05:29:38.598Z,16.80
2024-01-17T05:30:38.703Z,20.10
2024-01-17T05:31:38.568Z,17.20
2024-01-17T05:32:38.575Z,21.00
2024-01-17T05:33:38.586Z,22.30
2024-01-17T05:34:38.760Z,20.50
2024-01-17T05:35:38.942Z,23.50
2024-01-17T05:36:38.464Z,17.20
2024-01-17T05:37:38.449Z,17.80
2024-01-17T05:38:38.465Z,20.00
2024-01-17T05:39:38.439Z,17.80
2024-01-17T05:40:38.418Z,18.60
2024-01-17T05:41:38.424Z,21.30
2024-01-17T05:42:38.406Z,20.70
2024-01-17T05:43:38.396Z,18.30
2024-01-17T05:44:38.409Z,17.10
2024-01-17T05:45:38.344Z,18.30
2024-01-17T05:46:38.374Z,19.10
2024-01-17T05:47:38.387Z,21.10
2024-01-17T05:48:38.413Z,16.70
2024-01-17T05:49:38.339Z,18.90
2024-01-17T05:50:40.088Z,18.90
2024-01-17T05:51:38.264Z,19.50
2024-01-17T05:52:38.271Z,19.60
2024-01-17T05:53:38.310Z,17.70
2024-01-17T05:54:38.232Z,16.00
2024-01-17T05:55:38.242Z,17.40
2024-01-17T05:56:38.265Z,17.40
2024-01-17T05:57:38.242Z,18.40
2024-01-17T05:58:38.190Z,19.80
2024-01-17T05:59:38.194Z,21.10
2024-01-17T06:00:38.219Z,18.30
2024-01-17T06:01:38.123Z,17.80
2024-01-17T06:02:38.182Z,17.40
2024-01-17T06:03:38.195Z,17.70
2024-01-17T06:04:38.095Z,18.20
2024-01-17T06:05:38.176Z,15.30
2024-01-17T06:06:38.188Z,17.90
2024-01-17T06:07:38.077Z,16.20
2024-01-17T06:08:38.900Z,19.20
2024-01-17T06:09:38.022Z,18.50
2024-01-17T06:10:38.005Z,16.60
2024-01-17T06:11:38.053Z,21.00
2024-01-17T06:12:37.983Z,17.70
2024-01-17T06:13:37.989Z,17.10
2024-01-17T06:14:38.015Z,16.60
2024-01-17T06:15:37.954Z,17.20
2024-01-17T06:16:37.944Z,20.00
2024-01-17T06:17:38.214Z,21.80
2024-01-17T06:18:38.043Z,17.30
2024-01-17T06:19:37.972Z,15.90
2024-01-17T06:20:37.988Z,18.20
2024-01-17T06:21:37.862Z,17.80
2024-01-17T06:22:37.861Z,19.30
2024-01-17T06:23:37.838Z,16.10
2024-01-17T06:24:37.880Z,18.80
2024-01-17T06:25:37.827Z,17.70
2024-01-17T06:26:37.818Z,16.40
2024-01-17T06:27:37.800Z,17.70
2024-01-17T06:28:37.768Z,16.80
2024-01-17T06:29:37.814Z,18.20
2024-01-17T06:30:37.873Z,16.90
2024-01-17T06:31:37.752Z,18.40
2024-01-17T06:32:37.832Z,16.20
2024-01-17T06:33:37.822Z,17.90
2024-01-17T06:34:38.647Z,18.20
2024-01-17T06:35:37.715Z,18.50
2024-01-17T06:36:37.660Z,15.50
2024-01-17T06:37:37.664Z,16.80
2024-01-17T06:38:37.687Z,16.80
2024-01-17T06:39:37.774Z,16.60
2024-01-17T06:40:40.639Z,16.40
2024-01-17T06:41:37.653Z,17.30
2024-01-17T06:42:37.616Z,17.30
2024-01-17T06:43:37.584Z,17.30
2024-01-17T06:44:37.631Z,18.60
2024-01-17T06:45:37.557Z,17.50
2024-01-17T06:46:37.541Z,15.80
2024-01-17T06:47:37.650Z,16.80
2024-01-17T06:48:41.859Z,16.10
2024-01-17T06:49:38.575Z,20.20
2024-01-17T06:50:37.525Z,14.30
2024-01-17T06:51:37.451Z,16.80
2024-01-17T06:52:37.472Z,17.80
2024-01-17T06:53:37.435Z,22.50
2024-01-17T06:54:37.514Z,15.70
2024-01-17T06:55:37.426Z,17.30
2024-01-17T06:56:37.465Z,16.70
2024-01-17T06:57:37.411Z,18.20
2024-01-17T06:58:37.370Z,16.60
2024-01-17T06:59:37.436Z,15.90
2024-01-17T07:00:37.415Z,18.60
2024-01-17T07:01:37.330Z,15.20
2024-01-17T07:02:37.361Z,15.70
2024-01-17T07:03:37.310Z,16.60
2024-01-17T07:04:37.463Z,15.00
2024-01-17T07:05:37.437Z,19.70
2024-01-17T07:06:37.348Z,15.60
2024-01-17T07:07:37.285Z,17.00
2024-01-17T07:08:37.265Z,16.80
2024-01-17T07:09:37.242Z,13.30
2024-01-17T07:10:37.215Z,13.30
2024-01-17T07:11:37.241Z,16.10
2024-01-17T07:12:37.169Z,15.20
2024-01-17T07:13:37.225Z,15.70
2024-01-17T07:14:37.248Z,13.20
2024-01-17T07:15:37.160Z,17.40
2024-01-17T07:16:37.138Z,16.10
2024-01-17T07:17:37.271Z,14.20
2024-01-17T07:18:37.396Z,13.90
2024-01-17T07:19:37.083Z,14.00
2024-01-17T07:20:37.096Z,12.20
2024-01-17T07:21:37.063Z,12.50
2024-01-17T07:22:37.045Z,13.90
2024-01-17T07:23:37.159Z,16.70
2024-01-17T07:24:37.045Z,16.00
2024-01-17T07:25:37.004Z,14.80
2024-01-17T07:26:37.053Z,12.10
2024-01-17T07:27:36.991Z,13.30
2024-01-17T07:28:37.001Z,14.80
2024-01-17T07:29:36.996Z,14.50
2024-01-17T07:30:37.011Z,16.40
2024-01-17T07:31:36.944Z,14.60
2024-01-17T07:32:37.003Z,13.60
2024-01-17T07:33:36.995Z,14.80
2024-01-17T07:34:37.233Z,12.40
2024-01-17T07:35:36.903Z,12.60
2024-01-17T07:36:36.873Z,14.30
2024-01-17T07:37:36.851Z,13.90
2024-01-17T07:38:36.836Z,13.80
2024-01-17T07:39:36.855Z,14.00
2024-01-17T07:40:36.808Z,14.40
2024-01-17T07:41:36.892Z,12.10
2024-01-17T07:42:36.793Z,10.90
2024-01-17T07:43:36.755Z,11.80
2024-01-17T07:44:36.881Z,13.80
2024-01-17T07:45:36.722Z,16.30
2024-01-17T07:46:36.743Z,13.90
2024-01-17T07:47:36.759Z,12.60
2024-01-17T07:48:36.736Z,12.00
2024-01-17T07:49:36.691Z,17.60
2024-01-17T07:50:36.699Z,13.60
2024-01-17T07:51:36.659Z,13.50
2024-01-17T07:52:36.688Z,13.10
2024-01-17T07:53:36.637Z,14.80
2024-01-17T07:54:36.664Z,14.00
2024-01-17T07:55:36.623Z,14.70
2024-01-17T07:56:36.625Z,12.40
2024-01-17T07:57:36.556Z,11.00
2024-01-17T07:58:36.540Z,13.80
2024-01-17T07:59:36.563Z,13.50
2024-01-17T08:00:36.569Z,15.20
2024-01-17T08:01:36.501Z,13.60
2024-01-17T08:02:36.536Z,11.60
2024-01-17T08:03:36.630Z,13.20
2024-01-17T08:04:36.506Z,10.30
2024-01-17T08:05:36.514Z,13.90
2024-01-17T08:06:36.556Z,11.00
2024-01-17T08:07:36.427Z,10.70
2024-01-17T08:08:36.468Z,10.80
2024-01-17T08:09:36.397Z,11.60
2024-01-17T08:10:36.425Z,13.40
2024-01-17T08:11:36.450Z,12.10
2024-01-17T08:12:36.383Z,12.90
2024-01-17T08:13:36.403Z,10.00
2024-01-17T08:14:36.454Z,16.50
2024-01-17T08:15:36.346Z,12.20
2024-01-17T08:16:36.347Z,13.80
2024-01-17T08:17:36.385Z,12.00
2024-01-17T08:18:36.402Z,15.70
2024-01-17T08:19:36.322Z,13.00
2024-01-17T08:20:36.317Z,13.70
2024-01-17T08:21:36.241Z,12.00
2024-01-17T08:22:36.270Z,12.80
2024-01-17T08:23:36.266Z,11.20
2024-01-17T08:24:36.213Z,12.80
2024-01-17T08:25:36.293Z,12.40
2024-01-17T08:26:36.237Z,13.70
2024-01-17T08:27:36.199Z,10.10
2024-01-17T08:28:36.190Z,14.00
2024-01-17T08:29:36.164Z,10.70
2024-01-17T08:30:36.137Z,11.80
2024-01-17T08:31:36.465Z,9.90
2024-01-17T08:32:36.420Z,11.30
2024-01-17T08:33:36.662Z,12.60
2024-01-17T08:34:36.516Z,9.20
2024-01-17T08:35:37.172Z,9.70
2024-01-17T08:36:36.753Z,10.50
2024-01-17T08:37:36.058Z,13.10
2024-01-17T08:38:36.069Z,10.70
2024-01-17T08:39:36.050Z,12.00
2024-01-17T08:40:36.532Z,10.80
2024-01-17T08:41:36.028Z,10.60
2024-01-17T08:42:36.008Z,9.30
2024-01-17T08:43:35.951Z,9.60
2024-01-17T08:44:36.003Z,12.10
2024-01-17T08:45:36.072Z,10.20
2024-01-17T08:46:36.028Z,11.30
2024-01-17T08:47:35.959Z,11.40
2024-01-17T08:48:36.012Z,11.80
2024-01-17T08:49:35.895Z,12.00
2024-01-17T08:50:35.947Z,12.50
2024-01-17T08:51:35.938Z,12.00
2024-01-17T08:52:36.555Z,12.70
2024-01-17T08:53:35.942Z,11.90
2024-01-17T08:54:35.848Z,12.20
2024-01-17T08:55:35.896Z,9.40
2024-01-17T08:56:35.840Z,11.10
2024-01-17T08:57:36.138Z,11.80
2024-01-17T08:58:35.738Z,10.40
2024-01-17T08:59:35.817Z,9.00
2024-01-17T09:00:36.577Z,8.20
2024-01-17T09:01:35.871Z,10.70
2024-01-17T09:02:36.090Z,9.80
2024-01-17T09:03:36.531Z,10.80
2024-01-17T09:04:35.740Z,11.80
2024-01-17T09:05:35.693Z,13.40
2024-01-17T09:06:35.912Z,12.00
2024-01-17T09:07:35.989Z,9.70
2024-01-17T09:08:35.683Z,10.30
2024-01-17T09:09:35.767Z,11.70
2024-01-17T09:10:35.960Z,10.30
2024-01-17T09:11:35.607Z,9.90
2024-01-17T09:12:35.570Z,12.90
2024-01-17T09:13:35.583Z,10.80
2024-01-17T09:14:35.839Z,10.90
2024-01-17T09:15:35.512Z,13.60
2024-01-17T09:16:35.568Z,12.50
2024-01-17T09:17:36.385Z,13.00
2024-01-17T09:18:35.690Z,12.20
2024-01-17T09:19:35.760Z,9.40
2024-01-17T09:20:35.872Z,8.50
2024-01-17T09:21:35.622Z,13.30
2024-01-17T09:22:35.451Z,10.50
2024-01-17T09:23:35.511Z,11.30
2024-01-17T09:24:35.459Z,14.10
2024-01-17T09:25:35.617Z,12.00
2024-01-17T09:26:35.477Z,11.90
2024-01-17T09:27:35.374Z,10.60
2024-01-17T09:28:35.376Z,11.40
2024-01-17T09:29:35.567Z,14.00
2024-01-17T09:30:35.623Z,10.30
2024-01-17T09:31:35.293Z,11.20
2024-01-17T09:32:35.510Z,11.80
2024-01-17T09:33:35.726Z,11.40
2024-01-17T09:34:35.615Z,12.50
2024-01-17T09:35:41.014Z,13.30
2024-01-17T09:36:36.284Z,13.60
2024-01-17T09:37:35.344Z,11.90
2024-01-17T09:38:36.094Z,11.60
2024-01-17T09:39:35.558Z,11.90
2024-01-17T09:40:35.302Z,12.50
2024-01-17T09:41:35.393Z,11.30
2024-01-17T09:42:35.303Z,11.50
2024-01-17T09:43:35.527Z,12.60
2024-01-17T09:44:35.335Z,12.70
2024-01-17T09:45:35.126Z,12.20
2024-01-17T09:46:35.368Z,11.80
2024-01-17T09:47:35.337Z,13.30
2024-01-17T09:48:35.470Z,12.90
2024-01-17T09:49:35.092Z,14.20
2024-01-17T09:50:35.152Z,11.90
2024-01-17T09:51:35.137Z,12.50
2024-01-17T09:52:35.019Z,12.90
2024-01-17T09:53:35.025Z,13.40
2024-01-17T09:54:35.109Z,12.70
2024-01-17T09:55:34.965Z,14.00
2024-01-17T09:56:35.460Z,13.00
2024-01-17T09:57:35.231Z,15.30
2024-01-17T09:58:35.266Z,13.30
2024-01-17T09:59:34.964Z,12.30
2024-01-17T10:00:34.978Z,10.10
2024-01-17T10:01:34.985Z,14.10
2024-01-17T10:02:35.047Z,11.40
2024-01-17T10:03:34.970Z,15.00
2024-01-17T10:04:34.981Z,13.30
2024-01-17T10:05:37.195Z,12.40
2024-01-17T10:06:35.053Z,13.80
2024-01-17T10:07:35.052Z,13.00
2024-01-17T10:08:35.205Z,10.70
2024-01-17T10:09:34.848Z,12.30
2024-01-17T10:10:34.859Z,12.70
2024-01-17T10:11:34.861Z,13.60
2024-01-17T10:12:35.463Z,12.80
2024-01-17T10:13:34.837Z,12.40
2024-01-17T10:14:34.765Z,13.60
2024-01-17T10:15:34.727Z,14.70
2024-01-17T10:16:34.700Z,16.70
2024-01-17T10:17:34.823Z,16.00
2024-01-17T10:18:34.814Z,12.70
2024-01-17T10:19:34.987Z,13.30
2024-01-17T10:20:35.012Z,15.70
2024-01-17T10:21:34.912Z,15.90
2024-01-17T10:22:34.669Z,14.40
2024-01-17T10:23:34.832Z,12.30
2024-01-17T10:24:34.844Z,14.40
2024-01-17T10:25:34.709Z,14.90
2024-01-17T10:26:34.757Z,15.40
2024-01-17T10:27:34.821Z,14.60
2024-01-17T10:28:34.770Z,13.10
2024-01-17T10:29:36.928Z,16.00
2024-01-17T10:30:34.775Z,15.20
2024-01-17T10:31:34.669Z,16.70
2024-01-17T10:32:34.726Z,17.70
2024-01-17T10:33:34.901Z,14.50
2024-01-17T10:34:34.596Z,14.50
2024-01-17T10:35:34.589Z,14.70
2024-01-17T10:36:34.566Z,15.90
2024-01-17T10:37:34.687Z,15.40
2024-01-17T10:38:34.552Z,14.70
2024-01-17T10:39:34.471Z,14.20
2024-01-17T10:40:34.451Z,17.20
2024-01-17T10:41:34.453Z,13.70
2024-01-17T10:42:34.394Z,15.80
2024-01-17T10:43:34.367Z,15.70
2024-01-17T10:44:34.350Z,14.50
2024-01-17T10:45:34.369Z,17.20
2024-01-17T10:46:34.516Z,15.20
2024-01-17T10:47:34.482Z,15.50
2024-01-17T10:48:34.394Z,14.90
2024-01-17T10:49:34.331Z,16.40
2024-01-17T10:50:34.383Z,11.80
2024-01-17T10:51:34.227Z,15.30
2024-01-17T10:52:34.185Z,14.90
2024-01-17T10:53:44.628Z,14.60
2024-01-17T10:54:35.226Z,13.40
2024-01-17T10:55:34.149Z,15.20
2024-01-17T10:56:34.213Z,15.50
2024-01-17T10:57:34.205Z,13.50
2024-01-17T10:58:34.172Z,13.00
2024-01-17T10:59:34.199Z,16.00
2024-01-17T11:00:34.171Z,15.10
2024-01-17T11:01:34.092Z,14.60
2024-01-17T11:02:34.173Z,16.90
2024-01-17T11:03:34.184Z,15.30
2024-01-17T11:04:34.067Z,14.10
2024-01-17T11:05:34.191Z,15.50
2024-01-17T11:06:34.021Z,15.20
2024-01-17T11:07:34.137Z,15.20
2024-01-17T11:08:34.905Z,13.10
2024-01-17T11:09:36.039Z,16.00
2024-01-17T11:10:33.962Z,15.90
2024-01-17T11:11:34.013Z,15.70
2024-01-17T11:12:33.979Z,15.60
2024-01-17T11:13:33.941Z,14.70
2024-01-17T11:14:33.987Z,15.80
2024-01-17T11:15:33.976Z,15.30
2024-01-17T11:16:33.900Z,12.40
2024-01-17T11:17:36.512Z,16.50
2024-01-17T11:18:33.975Z,15.20
2024-01-17T11:19:34.265Z,14.50
2024-01-17T11:20:34.273Z,14.60
2024-01-17T11:21:56.992Z,14.20
2024-01-17T11:22:33.811Z,14.10
2024-01-17T11:23:33.882Z,15.90
2024-01-17T11:24:33.961Z,15.40
2024-01-17T11:25:33.836Z,15.70
2024-01-17T11:26:33.964Z,14.40
2024-01-17T11:27:33.806Z,17.30
2024-01-17T11:28:33.844Z,16.50
2024-01-17T11:29:33.861Z,15.10
2024-01-17T11:30:33.723Z,15.90
2024-01-17T11:31:34.663Z,13.10
2024-01-17T11:32:33.925Z,15.20
2024-01-17T11:33:33.947Z,14.50
2024-01-17T11:34:34.007Z,15.30
2024-01-17T11:35:33.763Z,16.70
2024-01-17T11:36:33.755Z,14.20
2024-01-17T11:37:33.637Z,14.50
2024-01-17T11:38:33.709Z,13.30
2024-01-17T11:39:33.599Z,17.20
2024-01-17T11:40:33.567Z,14.90
2024-01-17T11:41:33.621Z,17.50
2024-01-17T11:42:33.609Z,15.40
2024-01-17T11:43:33.546Z,17.50
2024-01-17T11:44:33.540Z,16.40
2024-01-17T11:45:33.597Z,15.30
2024-01-17T11:46:33.494Z,14.60
2024-01-17T11:47:33.670Z,15.40
2024-01-17T11:48:33.580Z,16.00
2024-01-17T11:49:33.525Z,14.60
2024-01-17T11:50:33.473Z,16.40
2024-01-17T11:51:33.509Z,14.90
2024-01-17T11:52:33.449Z,17.20
2024-01-17T11:53:33.556Z,13.80
2024-01-17T11:54:33.424Z,15.10
2024-01-17T11:55:33.427Z,16.50
2024-01-17T11:56:33.460Z,14.30
2024-01-17T11:57:33.577Z,14.30
2024-01-17T11:58:33.395Z,14.80
2024-01-17T11:59:33.350Z,13.20
2024-01-17T12:00:33.424Z,15.50
2024-01-17T12:01:33.291Z,16.60
2024-01-17T12:02:33.364Z,14.50
2024-01-17T12:03:33.283Z,16.90
2024-01-17T12:04:33.275Z,15.50
2024-01-17T12:05:33.391Z,15.10
2024-01-17T12:06:33.361Z,17.00
2024-01-17T12:07:33.259Z,15.20
2024-01-17T12:08:33.289Z,16.20
2024-01-17T12:09:33.228Z,14.10
2024-01-17T12:10:33.221Z,14.30
2024-01-17T12:11:33.177Z,13.10
2024-01-17T12:12:33.142Z,20.30
2024-01-17T12:13:33.172Z,14.70
2024-01-17T12:14:33.213Z,19.70
2024-01-17T12:15:33.197Z,15.70
2024-01-17T12:16:33.186Z,15.20
2024-01-17T12:17:33.119Z,13.20
2024-01-17T12:18:33.308Z,17.10
2024-01-17T12:19:33.106Z,16.50
2024-01-17T12:20:33.096Z,13.90
2024-01-17T12:21:33.059Z,15.50
2024-01-17T12:22:33.035Z,16.20
2024-01-17T12:23:33.233Z,13.80
2024-01-17T12:24:43.308Z,17.00
2024-01-17T12:25:34.018Z,14.20
2024-01-17T12:26:33.638Z,16.00
2024-01-17T12:27:32.949Z,18.30
2024-01-17T12:28:33.017Z,16.90
2024-01-17T12:29:33.136Z,13.20
2024-01-17T12:30:32.998Z,17.70
2024-01-17T12:31:32.903Z,14.70
2024-01-17T12:32:33.040Z,14.80
2024-01-17T12:33:33.038Z,15.40
2024-01-17T12:34:32.860Z,14.10
2024-01-17T12:35:32.880Z,14.10
2024-01-17T12:36:32.856Z,15.00
2024-01-17T12:37:32.862Z,14.20
2024-01-17T12:38:32.864Z,14.70
2024-01-17T12:39:32.798Z,14.90
2024-01-17T12:40:32.818Z,14.40
2024-01-17T12:41:32.840Z,12.90
2024-01-17T12:42:32.771Z,15.10
2024-01-17T12:43:32.732Z,13.10
2024-01-17T12:44:32.883Z,15.40
2024-01-17T12:45:32.828Z,14.90
2024-01-17T12:46:32.749Z,15.20
2024-01-17T12:47:32.709Z,14.00
2024-01-17T12:48:32.834Z,14.30
2024-01-17T12:49:33.716Z,13.30
2024-01-17T12:50:34.314Z,12.20
2024-01-17T12:51:32.658Z,14.10
2024-01-17T12:52:32.624Z,12.00
2024-01-17T12:53:32.621Z,15.20